Time;durP1;ratioP1;P1;durP2;ratioP2;P2;SDS_P1;SDS_P2;PMS_P1;PMS_P2;Temp;Humidity;BMP_temperature;BMP_pressure;BME280_temperature;BME280_humidity;BME280_pressure;Samples;Min_cycle;Max_cycle;Signal;HPM_P1;HPM_P2
2022/01/27 00:00:41;;;;;;;29.63;13.77;;;5.10;99.90;;;;;;6218319;23;20149;-62
2022/01/27 00:03:16;;;;;;;26.67;13.13;;;5.20;99.90;;;;;;6218643;23;20129;-62
2022/01/27 00:05:53;;;;;;;22.58;12.13;;;5.10;99.90;;;;;;6218274;23;20461;-62
2022/01/27 00:08:26;;;;;;;25.40;12.52;;;5.20;99.90;;;;;;6218316;23;20129;-61
2022/01/27 00:11:08;;;;;;;23.85;13.02;;;5.10;99.90;;;;;;6218310;23;20133;-62
2022/01/27 00:13:43;;;;;;;20.70;11.50;;;5.10;99.90;;;;;;6218089;23;20125;-61
2022/01/27 00:16:14;;;;;;;21.40;11.82;;;5.20;99.90;;;;;;6218173;23;20200;-62
2022/01/27 00:18:42;;;;;;;22.40;11.27;;;5.10;99.90;;;;;;6218062;23;20173;-62
2022/01/27 00:21:07;;;;;;;23.10;11.90;;;5.20;99.90;;;;;;6218091;23;20462;-63
2022/01/27 00:23:34;;;;;;;21.33;11.75;;;5.20;99.90;;;;;;6217955;23;20163;-62
2022/01/27 00:25:59;;;;;;;28.15;13.00;;;5.20;99.90;;;;;;6218196;23;20464;-62
2022/01/27 00:28:25;;;;;;;22.95;12.52;;;5.20;99.90;;;;;;6217698;23;20147;-62
2022/01/27 00:30:50;;;;;;;21.38;11.30;;;5.20;99.90;;;;;;6218271;23;20149;-61
2022/01/27 00:33:16;;;;;;;21.35;11.27;;;5.20;99.90;;;;;;6217712;23;20299;-62
2022/01/27 00:35:41;;;;;;;19.40;11.52;;;5.10;99.90;;;;;;6217882;23;20144;-63
2022/01/27 00:38:07;;;;;;;17.60;10.00;;;5.10;99.90;;;;;;6217979;23;20207;-61
2022/01/27 00:40:32;;;;;;;21.27;11.35;;;5.10;99.90;;;;;;6217479;23;20460;-62
2022/01/27 00:42:58;;;;;;;16.90;9.80;;;5.10;99.90;;;;;;6217162;23;20141;-62
2022/01/27 00:45:25;;;;;;;19.08;10.40;;;5.10;99.90;;;;;;6217951;23;20141;-62
2022/01/27 00:47:50;;;;;;;19.98;10.95;;;5.10;99.90;;;;;;6217841;23;20145;-63
2022/01/27 00:50:18;;;;;;;20.55;10.45;;;5.10;99.90;;;;;;6217756;23;20168;-63
2022/01/27 00:52:49;;;;;;;17.73;10.48;;;5.10;99.90;;;;;;6217749;23;20188;-62
2022/01/27 00:55:15;;;;;;;18.33;9.57;;;5.00;99.90;;;;;;6218064;23;20146;-61
2022/01/27 01:00:09;;;;;;;18.75;9.80;;;5.00;99.90;;;;;;6217700;23;20204;-63
2022/01/27 01:02:52;;;;;;;16.65;9.82;;;5.00;99.90;;;;;;6191389;23;20258;-62
2022/01/27 01:05:40;;;;;;;16.20;8.65;;;5.00;99.90;;;;;;6217812;23;20556;-62
2022/01/27 01:11:20;;;;;;;18.10;9.18;;;5.10;99.90;;;;;;6217926;23;20140;-63
2022/01/27 01:14:22;;;;;;;16.05;8.13;;;5.10;99.90;;;;;;6216997;23;20156;-63
2022/01/27 01:19:16;;;;;;;13.27;7.43;;;5.10;99.90;;;;;;6217587;23;20167;-62
2022/01/27 01:30:07;;;;;;;11.45;6.10;;;4.90;99.90;;;;;;6217086;23;20143;-62
2022/01/27 01:32:46;;;;;;;12.40;7.30;;;4.90;99.90;;;;;;6217338;23;20198;-61
2022/01/27 01:35:12;;;;;;;12.80;6.68;;;4.90;99.90;;;;;;6217577;23;20199;-63
2022/01/27 01:37:41;;;;;;;11.23;6.70;;;4.90;99.90;;;;;;6217321;23;20153;-62
2022/01/27 01:40:13;;;;;;;11.07;6.68;;;4.90;99.90;;;;;;6217906;23;20160;-62
2022/01/27 01:42:40;;;;;;;10.73;6.60;;;4.90;99.90;;;;;;6217616;23;20196;-62
2022/01/27 01:45:08;;;;;;;13.25;7.57;;;4.90;99.90;;;;;;6218316;23;20176;-62
2022/01/27 01:47:34;;;;;;;13.75;7.53;;;4.90;99.90;;;;;;6217490;23;20141;-63
2022/01/27 01:50:00;;;;;;;14.65;7.97;;;4.90;99.90;;;;;;6217935;23;20152;-63
2022/01/27 01:52:25;;;;;;;12.18;7.65;;;4.80;99.90;;;;;;6218095;23;20496;-62
2022/01/27 01:54:53;;;;;;;13.18;7.57;;;4.80;99.90;;;;;;6218108;23;20149;-62
2022/01/27 01:57:19;;;;;;;12.80;7.65;;;4.80;99.90;;;;;;6218243;23;20240;-62
2022/01/27 01:59:44;;;;;;;13.63;7.05;;;4.80;99.90;;;;;;6218719;23;20169;-62
2022/01/27 02:02:12;;;;;;;14.18;7.75;;;4.80;99.90;;;;;;6217968;23;20172;-62
2022/01/27 02:04:39;;;;;;;14.68;8.45;;;4.80;99.90;;;;;;6218350;23;20194;-62
2022/01/27 02:07:10;;;;;;;13.60;7.55;;;4.80;99.90;;;;;;6217678;23;20222;-61
2022/01/27 02:18:03;;;;;;;15.20;7.97;;;4.90;99.90;;;;;;6216739;23;20211;-62
2022/01/27 02:20:30;;;;;;;17.30;9.52;;;4.90;99.90;;;;;;6216721;23;20180;-62
2022/01/27 02:22:56;;;;;;;18.55;9.38;;;4.90;99.90;;;;;;6216737;23;20160;-63
2022/01/27 02:25:22;;;;;;;17.08;8.75;;;4.90;99.90;;;;;;6190767;23;20149;-63
2022/01/27 02:27:52;;;;;;;15.98;9.23;;;4.90;99.90;;;;;;6216801;23;20187;-64
2022/01/27 02:30:18;;;;;;;19.10;9.70;;;4.90;99.90;;;;;;6216871;23;20231;-64
2022/01/27 02:32:44;;;;;;;19.95;11.10;;;4.90;99.90;;;;;;6216430;23;20176;-65
2022/01/27 02:35:09;;;;;;;20.02;10.32;;;4.80;99.90;;;;;;6216161;23;20592;-63
2022/01/27 02:37:35;;;;;;;19.13;10.57;;;4.90;99.90;;;;;;6216371;23;20149;-63
2022/01/27 02:40:00;;;;;;;22.60;11.77;;;4.90;99.90;;;;;;6216409;23;20167;-63
2022/01/27 02:42:32;;;;;;;22.30;11.10;;;4.90;99.90;;;;;;6215950;23;20446;-64
2022/01/27 02:45:08;;;;;;;24.15;12.30;;;4.90;99.90;;;;;;6216246;23;20199;-64
2022/01/27 02:47:34;;;;;;;23.83;12.63;;;4.90;99.90;;;;;;6215922;23;20149;-64
2022/01/27 02:50:00;;;;;;;22.33;11.35;;;4.90;99.90;;;;;;6216717;23;20145;-66
2022/01/27 02:52:25;;;;;;;22.98;12.27;;;4.90;99.90;;;;;;6215778;23;20447;-64
2022/01/27 02:54:51;;;;;;;26.08;13.20;;;4.90;99.90;;;;;;6215907;23;20173;-65
2022/01/27 02:57:16;;;;;;;23.05;12.07;;;4.90;99.90;;;;;;6215969;23;20179;-64
2022/01/27 02:59:42;;;;;;;24.45;13.52;;;4.90;99.90;;;;;;6216713;23;20145;-65
2022/01/27 03:02:08;;;;;;;22.63;12.40;;;4.90;99.90;;;;;;6216151;23;20176;-65
2022/01/27 03:04:34;;;;;;;27.55;12.40;;;4.90;99.90;;;;;;6216155;23;20145;-65
2022/01/27 03:07:03;;;;;;;21.95;11.45;;;4.90;99.90;;;;;;6217106;23;20173;-64
2022/01/27 03:09:28;;;;;;;23.83;11.98;;;4.90;99.90;;;;;;6217698;23;20422;-63
2022/01/27 03:11:59;;;;;;;23.92;13.00;;;4.90;99.90;;;;;;6217883;23;20155;-64
2022/01/27 03:14:25;;;;;;;27.02;13.35;;;4.90;99.90;;;;;;6191657;23;20156;-64
2022/01/27 03:16:56;;;;;;;23.75;12.88;;;4.90;99.90;;;;;;6217860;23;20627;-65
2022/01/27 03:19:21;;;;;;;23.30;12.63;;;4.90;99.90;;;;;;6217494;23;20591;-65
2022/01/27 03:21:47;;;;;;;22.70;11.48;;;4.90;99.90;;;;;;6217666;23;20169;-64
2022/01/27 03:24:13;;;;;;;26.80;13.27;;;4.90;99.90;;;;;;6217530;23;20148;-64
2022/01/27 03:26:40;;;;;;;26.13;13.00;;;5.00;99.90;;;;;;6228998;23;20152;-65
2022/01/27 03:29:05;;;;;;;24.17;13.15;;;5.00;99.90;;;;;;6228516;23;20199;-65
2022/01/27 03:31:31;;;;;;;24.45;13.60;;;5.00;99.90;;;;;;6217984;23;20153;-65
2022/01/27 03:33:56;;;;;;;30.38;12.68;;;5.00;99.90;;;;;;6217898;23;20195;-64
2022/01/27 03:36:22;;;;;;;25.25;12.88;;;5.00;99.90;;;;;;6217807;23;20542;-64
2022/01/27 03:38:48;;;;;;;28.88;14.65;;;5.00;99.90;;;;;;6217723;23;20152;-65
2022/01/27 03:41:18;;;;;;;26.83;13.75;;;5.00;99.90;;;;;;6217457;23;20246;-64
2022/01/27 03:43:45;;;;;;;22.85;12.68;;;5.00;99.90;;;;;;6217574;23;20129;-64
2022/01/27 03:46:11;;;;;;;24.65;13.55;;;4.90;99.90;;;;;;6217653;23;20231;-64
2022/01/27 03:48:36;;;;;;;24.45;12.98;;;4.90;99.90;;;;;;6217512;23;20145;-65
2022/01/27 03:51:02;;;;;;;24.42;13.52;;;4.90;99.90;;;;;;6218110;23;20145;-64
2022/01/27 03:53:28;;;;;;;23.73;12.23;;;4.90;99.90;;;;;;6217679;23;20160;-65
2022/01/27 03:55:53;;;;;;;23.63;12.15;;;4.90;99.90;;;;;;6217614;23;20141;-64
2022/01/27 03:58:19;;;;;;;27.50;13.45;;;4.90;99.90;;;;;;6217529;23;20568;-65
2022/01/27 04:00:44;;;;;;;23.33;12.45;;;4.90;99.90;;;;;;6217326;23;20163;-64
2022/01/27 04:03:13;;;;;;;23.55;12.68;;;4.90;99.90;;;;;;6217407;23;20203;-65
2022/01/27 04:05:42;;;;;;;25.77;13.48;;;4.90;99.90;;;;;;6217615;23;20141;-65
2022/01/27 04:08:10;;;;;;;23.67;13.13;;;4.90;99.90;;;;;;6217119;23;20578;-64
2022/01/27 04:10:36;;;;;;;25.95;13.40;;;4.90;99.90;;;;;;6217322;23;20145;-64
2022/01/27 04:13:04;;;;;;;26.27;13.60;;;4.90;99.90;;;;;;6217152;23;20251;-65
2022/01/27 04:15:29;;;;;;;29.45;14.98;;;4.90;99.90;;;;;;6217198;23;20199;-64
2022/01/27 04:17:55;;;;;;;29.17;14.55;;;4.90;99.90;;;;;;6216852;23;20141;-65
2022/01/27 04:20:20;;;;;;;33.33;16.00;;;4.90;99.90;;;;;;6216833;23;20168;-65
2022/01/27 04:22:46;;;;;;;33.95;17.15;;;4.90;99.90;;;;;;6217062;23;20465;-65
2022/01/27 04:25:13;;;;;;;36.03;17.33;;;4.90;99.90;;;;;;6217110;23;20145;-65
2022/01/27 04:27:42;;;;;;;35.05;17.95;;;4.90;99.90;;;;;;6217397;23;20202;-65
2022/01/27 04:30:15;;;;;;;37.20;19.00;;;4.90;99.90;;;;;;6217222;23;20155;-65
2022/01/27 04:32:46;;;;;;;35.72;18.75;;;5.00;99.90;;;;;;6217622;23;20140;-65
2022/01/27 04:35:15;;;;;;;41.33;19.60;;;5.00;99.90;;;;;;6217422;23;20416;-64
2022/01/27 04:37:52;;;;;;;40.70;20.95;;;5.00;99.90;;;;;;6217470;23;20179;-65
2022/01/27 04:40:24;;;;;;;40.25;20.88;;;5.00;99.90;;;;;;6217242;23;20434;-65
2022/01/27 04:43:01;;;;;;;43.10;22.08;;;5.00;99.90;;;;;;6217298;23;20161;-64
2022/01/27 04:45:33;;;;;;;43.95;21.58;;;5.00;99.90;;;;;;6217647;23;20121;-65
2022/01/27 04:48:08;;;;;;;42.47;21.80;;;5.00;99.90;;;;;;6217277;23;20248;-64
2022/01/27 04:50:34;;;;;;;43.00;22.00;;;5.00;99.90;;;;;;6217131;23;20207;-64
2022/01/27 04:53:02;;;;;;;53.65;24.00;;;5.00;99.90;;;;;;6216944;23;20160;-64
2022/01/27 04:55:27;;;;;;;42.97;21.33;;;5.00;99.90;;;;;;6217455;23;20145;-64
2022/01/27 04:58:06;;;;;;;45.58;22.13;;;5.00;99.90;;;;;;6216824;23;20537;-65
2022/01/27 05:00:31;;;;;;;46.47;21.40;;;5.10;99.90;;;;;;6217078;23;20209;-62
2022/01/27 05:02:59;;;;;;;43.92;21.58;;;5.10;99.90;;;;;;6216879;23;20260;-62
2022/01/27 05:05:25;;;;;;;37.70;20.15;;;5.10;99.90;;;;;;6216798;23;20141;-62
2022/01/27 05:07:59;;;;;;;36.22;18.98;;;5.10;99.90;;;;;;6216534;23;20220;-62
2022/01/27 05:10:29;;;;;;;38.67;19.52;;;5.10;99.90;;;;;;6216746;23;20132;-62
2022/01/27 05:13:00;;;;;;;36.30;18.15;;;5.20;99.90;;;;;;6216937;23;20170;-62
2022/01/27 05:15:26;;;;;;;37.20;18.90;;;5.20;99.90;;;;;;6216872;23;20421;-61
2022/01/27 05:17:52;;;;;;;33.25;17.10;;;5.20;99.90;;;;;;6217054;23;20228;-62
2022/01/27 05:20:17;;;;;;;35.10;17.98;;;5.30;99.90;;;;;;6217351;23;20592;-61
2022/01/27 05:22:43;;;;;;;33.05;17.05;;;5.30;99.90;;;;;;6217988;23;20165;-62
2022/01/27 05:25:09;;;;;;;34.85;16.70;;;5.30;99.90;;;;;;6218654;23;20141;-62
2022/01/27 05:27:35;;;;;;;29.77;16.08;;;5.30;99.90;;;;;;6218463;23;20152;-61
2022/01/27 05:30:00;;;;;;;31.70;15.65;;;5.30;99.90;;;;;;6217759;23;20547;-61
2022/01/27 05:32:26;;;;;;;27.13;13.75;;;5.40;99.90;;;;;;6218343;23;20145;-62
2022/01/27 05:34:51;;;;;;;29.20;15.27;;;5.30;99.90;;;;;;6218038;23;20149;-62
2022/01/27 05:37:17;;;;;;;29.77;14.48;;;5.40;99.90;;;;;;6217149;23;20206;-62
2022/01/27 05:39:42;;;;;;;29.65;14.77;;;5.40;99.90;;;;;;6216919;23;20145;-62
2022/01/27 05:42:08;;;;;;;27.08;14.02;;;5.40;99.90;;;;;;6217103;23;20168;-62
2022/01/27 05:44:34;;;;;;;29.30;13.82;;;5.40;99.90;;;;;;6217223;23;20473;-62
2022/01/27 05:46:59;;;;;;;26.08;14.50;;;5.40;99.90;;;;;;6216993;23;20140;-62
2022/01/27 05:49:25;;;;;;;24.42;14.38;;;5.40;99.90;;;;;;6217309;23;20164;-62
2022/01/27 05:51:51;;;;;;;24.77;13.70;;;5.40;99.90;;;;;;6216940;23;20152;-62
2022/01/27 05:54:16;;;;;;;25.02;14.35;;;5.40;99.90;;;;;;6217052;23;20157;-62
2022/01/27 05:56:42;;;;;;;23.48;12.73;;;5.40;99.90;;;;;;6217657;23;20446;-62
2022/01/27 05:59:07;;;;;;;26.67;14.52;;;5.40;99.90;;;;;;6217366;23;20283;-62
2022/01/27 06:01:33;;;;;;;23.48;12.90;;;5.40;99.90;;;;;;6217187;23;20181;-62
2022/01/27 06:03:58;;;;;;;20.35;12.23;;;5.40;99.90;;;;;;6217388;23;20147;-62
2022/01/27 06:06:24;;;;;;;22.33;12.23;;;5.40;99.90;;;;;;6216880;23;20490;-62
2022/01/27 06:08:49;;;;;;;24.15;12.80;;;5.40;99.90;;;;;;6218299;23;20141;-62
2022/01/27 06:11:15;;;;;;;20.92;11.40;;;5.30;99.90;;;;;;6217724;23;20144;-62
2022/01/27 06:13:40;;;;;;;21.65;11.93;;;5.30;99.90;;;;;;6217806;23;20175;-62
2022/01/27 06:16:10;;;;;;;22.38;12.52;;;5.30;99.90;;;;;;6218037;23;20593;-62
2022/01/27 06:18:39;;;;;;;20.27;11.20;;;5.30;99.90;;;;;;6218060;23;20176;-62
2022/01/27 06:21:06;;;;;;;19.15;11.73;;;5.30;99.90;;;;;;6218138;23;20179;-63
2022/01/27 06:23:32;;;;;;;20.88;12.07;;;5.30;99.90;;;;;;6218377;23;20164;-62
2022/01/27 06:25:59;;;;;;;21.08;11.20;;;5.30;99.90;;;;;;6218229;23;20211;-62
2022/01/27 06:28:24;;;;;;;21.98;12.68;;;5.30;99.90;;;;;;6217629;23;20141;-63
2022/01/27 06:30:50;;;;;;;18.23;10.25;;;5.30;99.90;;;;;;6216457;23;20211;-62
2022/01/27 06:33:15;;;;;;;17.25;10.90;;;5.30;99.90;;;;;;6216221;23;20148;-62
2022/01/27 06:35:41;;;;;;;21.50;11.43;;;5.30;99.90;;;;;;6216396;23;20166;-62
2022/01/27 06:38:07;;;;;;;18.83;10.82;;;5.40;99.90;;;;;;6216746;23;20137;-62
2022/01/27 06:40:33;;;;;;;17.98;10.90;;;5.40;99.90;;;;;;6216910;23;20148;-62
2022/01/27 06:42:58;;;;;;;20.38;11.07;;;5.40;99.90;;;;;;6218132;23;20175;-62
2022/01/27 06:45:24;;;;;;;18.60;10.73;;;5.40;99.90;;;;;;6218012;23;20141;-61
2022/01/27 06:47:49;;;;;;;20.52;12.52;;;5.40;99.90;;;;;;6218419;23;20141;-62
2022/01/27 06:50:15;;;;;;;22.38;12.15;;;5.40;99.90;;;;;;6218556;23;20426;-62
2022/01/27 06:52:41;;;;;;;21.05;11.07;;;5.50;99.90;;;;;;6218568;23;20145;-62
2022/01/27 06:55:09;;;;;;;20.35;11.23;;;5.50;99.90;;;;;;6218765;23;20221;-62
2022/01/27 06:57:34;;;;;;;18.40;10.60;;;5.50;99.90;;;;;;6167316;23;20211;-62
2022/01/27 07:00:00;;;;;;;16.52;9.90;;;5.50;99.90;;;;;;6218655;23;20148;-62
2022/01/27 07:02:26;;;;;;;22.42;11.48;;;5.50;99.90;;;;;;6218897;23;20219;-62
2022/01/27 07:04:52;;;;;;;18.23;11.10;;;5.50;99.90;;;;;;6218630;23;20149;-62
2022/01/27 07:07:17;;;;;;;19.40;10.95;;;5.50;99.90;;;;;;6218614;23;20167;-62
2022/01/27 07:09:43;;;;;;;18.75;11.15;;;5.40;99.90;;;;;;6218450;23;20137;-62
2022/01/27 07:12:09;;;;;;;20.00;10.43;;;5.50;99.90;;;;;;6218198;23;20541;-62
2022/01/27 07:14:34;;;;;;;15.52;10.27;;;5.40;99.90;;;;;;6218606;23;20240;-62
2022/01/27 07:17:00;;;;;;;20.17;9.60;;;5.50;99.90;;;;;;6219641;23;20145;-62
2022/01/27 07:19:26;;;;;;;14.60;9.57;;;5.50;99.90;;;;;;6219019;23;20580;-62
2022/01/27 07:21:52;;;;;;;16.45;10.45;;;5.50;99.90;;;;;;6219015;23;20248;-62
2022/01/27 07:24:17;;;;;;;15.65;10.23;;;5.40;99.90;;;;;;6218979;23;20149;-63
2022/01/27 07:26:43;;;;;;;16.08;9.77;;;5.50;99.90;;;;;;6218130;23;20149;-62
2022/01/27 07:29:08;;;;;;;14.90;9.30;;;5.50;99.90;;;;;;6217844;23;20137;-62
2022/01/27 07:31:34;;;;;;;15.57;9.77;;;5.50;99.90;;;;;;6217762;23;20149;-62
2022/01/27 07:33:59;;;;;;;16.95;10.27;;;5.50;99.90;;;;;;6217851;23;20173;-62
2022/01/27 07:36:25;;;;;;;14.80;10.32;;;5.50;99.90;;;;;;6217731;23;20160;-61
2022/01/27 07:38:50;;;;;;;15.52;10.20;;;5.50;99.90;;;;;;6217728;23;20149;-62
2022/01/27 07:41:17;;;;;;;18.30;10.15;;;5.50;99.90;;;;;;6217603;23;20171;-62
2022/01/27 07:43:43;;;;;;;13.85;9.73;;;5.50;99.90;;;;;;6218925;23;20328;-62
2022/01/27 07:46:11;;;;;;;16.00;10.07;;;5.60;99.90;;;;;;6217842;23;20168;-62
2022/01/27 07:48:37;;;;;;;13.57;9.07;;;5.60;99.90;;;;;;6218412;23;20419;-62
2022/01/27 07:51:03;;;;;;;12.25;8.57;;;5.60;99.90;;;;;;6218308;23;20145;-62
2022/01/27 07:53:29;;;;;;;14.77;9.07;;;5.60;99.90;;;;;;6217991;23;20149;-62
2022/01/27 07:55:56;;;;;;;12.07;8.38;;;5.60;99.90;;;;;;6219828;23;20223;-63
2022/01/27 07:58:21;;;;;;;13.02;8.10;;;5.60;99.90;;;;;;6218858;23;20149;-62
2022/01/27 08:00:47;;;;;;;13.60;8.73;;;5.60;99.90;;;;;;6217728;23;20163;-62
2022/01/27 08:03:12;;;;;;;12.95;8.30;;;5.60;99.90;;;;;;6218169;23;20141;-62
2022/01/27 08:05:38;;;;;;;12.07;8.75;;;5.60;99.90;;;;;;6218539;23;20156;-62
2022/01/27 08:08:03;;;;;;;11.77;8.30;;;5.60;99.90;;;;;;6218390;23;20172;-62
2022/01/27 08:10:36;;;;;;;12.30;8.63;;;5.60;99.90;;;;;;6218465;23;20145;-62
2022/01/27 08:13:03;;;;;;;12.27;8.10;;;5.60;99.90;;;;;;6218354;23;20514;-62
2022/01/27 08:15:28;;;;;;;12.90;7.38;;;5.50;99.90;;;;;;6218465;23;20537;-62
2022/01/27 08:17:54;;;;;;;11.13;7.75;;;5.60;99.90;;;;;;6218745;23;20231;-62
2022/01/27 08:20:19;;;;;;;10.85;7.45;;;5.60;99.90;;;;;;6218711;23;20171;-63
2022/01/27 08:22:47;;;;;;;11.20;7.40;;;5.60;99.90;;;;;;6218282;23;20494;-63
2022/01/27 08:25:13;;;;;;;11.15;7.63;;;5.60;99.90;;;;;;6219257;23;20149;-62
2022/01/27 08:27:41;;;;;;;11.65;7.57;;;5.60;99.90;;;;;;6218605;23;20145;-62
2022/01/27 08:30:07;;;;;;;10.52;7.20;;;5.60;99.90;;;;;;6219387;23;20223;-62
2022/01/27 08:32:45;;;;;;;13.52;7.82;;;5.60;99.90;;;;;;6219380;23;20157;-62
2022/01/27 08:35:13;;;;;;;10.07;7.03;;;5.60;99.90;;;;;;6219397;23;20506;-62
2022/01/27 08:37:39;;;;;;;10.73;6.93;;;5.60;99.90;;;;;;6219119;23;20152;-62
2022/01/27 08:40:05;;;;;;;10.32;6.85;;;5.60;99.90;;;;;;6218483;23;20234;-62
2022/01/27 08:42:31;;;;;;;11.18;7.55;;;5.60;99.90;;;;;;6218096;23;20187;-62
2022/01/27 08:44:56;;;;;;;9.98;7.10;;;5.60;99.90;;;;;;6218179;23;20193;-62
2022/01/27 08:47:22;;;;;;;11.40;7.75;;;5.60;99.90;;;;;;6220300;23;20423;-62
2022/01/27 08:49:48;;;;;;;10.60;6.90;;;5.60;99.90;;;;;;6218663;23;20141;-62
2022/01/27 08:52:13;;;;;;;11.70;7.53;;;5.60;99.90;;;;;;6217623;23;20416;-62
2022/01/27 08:54:39;;;;;;;11.02;7.20;;;5.60;99.90;;;;;;6217375;23;20424;-62
2022/01/27 08:57:05;;;;;;;12.20;8.15;;;5.70;99.90;;;;;;6217435;23;20141;-62
2022/01/27 08:59:31;;;;;;;10.68;6.97;;;5.70;99.90;;;;;;6218037;23;20263;-62
2022/01/27 09:01:56;;;;;;;9.25;5.97;;;5.80;99.90;;;;;;6217712;23;20172;-62
2022/01/27 09:04:22;;;;;;;9.15;6.32;;;5.80;99.90;;;;;;6221844;23;20147;-62
2022/01/27 09:06:48;;;;;;;8.20;6.13;;;5.80;99.90;;;;;;6216898;23;20137;-63
2022/01/27 09:09:13;;;;;;;7.75;5.65;;;5.90;99.90;;;;;;6216774;23;20164;-61
2022/01/27 09:11:43;;;;;;;8.32;6.15;;;5.90;99.90;;;;;;6216827;23;20206;-61
2022/01/27 09:14:08;;;;;;;9.10;6.00;;;6.00;99.90;;;;;;6218545;23;20214;-61
2022/01/27 09:16:35;;;;;;;10.63;6.05;;;6.00;99.90;;;;;;6217132;23;20558;-61
2022/01/27 09:19:01;;;;;;;8.23;5.70;;;6.10;99.90;;;;;;6217311;23;20168;-62
2022/01/27 09:21:39;;;;;;;6.68;5.30;;;6.10;99.90;;;;;;6217879;23;20211;-62
2022/01/27 09:24:05;;;;;;;7.90;5.85;;;6.10;99.90;;;;;;6218295;23;20117;-62
2022/01/27 09:26:51;;;;;;;6.47;4.65;;;6.20;99.90;;;;;;6218164;23;20452;-62
2022/01/27 09:29:19;;;;;;;7.30;5.15;;;6.20;99.90;;;;;;6218269;23;20204;-62
2022/01/27 09:31:45;;;;;;;7.35;4.80;;;6.10;99.90;;;;;;6216750;23;20149;-62
2022/01/27 09:34:11;;;;;;;8.35;5.38;;;6.10;99.90;;;;;;6216906;23;20218;-63
2022/01/27 09:36:36;;;;;;;8.35;5.32;;;6.10;99.90;;;;;;6217633;23;20183;-61
2022/01/27 09:39:03;;;;;;;8.05;6.35;;;6.10;99.90;;;;;;6216929;23;20656;-61
2022/01/27 09:41:29;;;;;;;7.45;5.28;;;6.10;99.90;;;;;;6216926;23;20582;-62
2022/01/27 09:43:55;;;;;;;7.78;5.47;;;6.10;99.90;;;;;;6190314;23;20183;-62
2022/01/27 09:46:23;;;;;;;7.85;5.10;;;6.10;99.90;;;;;;6216989;23;20581;-62
2022/01/27 09:48:50;;;;;;;6.13;4.70;;;6.10;99.90;;;;;;6216799;23;20179;-62
2022/01/27 09:53:48;;;;;;;5.75;4.47;;;6.10;99.90;;;;;;6217028;23;20160;-62
2022/01/27 09:56:14;;;;;;;7.28;5.03;;;6.10;99.90;;;;;;6216600;23;20152;-62
2022/01/27 09:58:39;;;;;;;7.50;5.63;;;6.00;99.90;;;;;;6216156;23;20152;-61
2022/01/27 10:01:05;;;;;;;7.28;4.88;;;6.00;99.90;;;;;;6216453;23;20492;-61
2022/01/27 10:03:31;;;;;;;7.18;5.38;;;6.00;99.90;;;;;;6215971;23;20525;-62
2022/01/27 10:06:13;;;;;;;7.18;5.22;;;6.10;99.90;;;;;;6216051;23;20141;-60
2022/01/27 10:08:42;;;;;;;6.72;4.50;;;6.10;99.90;;;;;;6216023;23;20518;-61
2022/01/27 10:11:15;;;;;;;6.78;4.75;;;6.10;99.90;;;;;;6216080;23;20232;-62
2022/01/27 10:13:43;;;;;;;7.93;5.00;;;6.10;99.90;;;;;;6216273;23;20148;-60
2022/01/27 10:16:30;;;;;;;7.38;4.90;;;6.10;99.90;;;;;;6215686;23;20602;-60
2022/01/27 10:19:09;;;;;;;7.28;4.95;;;6.10;99.90;;;;;;6216107;23;20469;-63
2022/01/27 10:21:35;;;;;;;6.25;3.85;;;6.10;99.90;;;;;;6216015;23;20326;-59
2022/01/27 10:24:16;;;;;;;7.00;4.22;;;6.10;99.90;;;;;;6216034;23;20612;-62
2022/01/27 10:26:45;;;;;;;5.30;4.22;;;6.10;99.90;;;;;;6216229;23;20512;-62
2022/01/27 10:29:28;;;;;;;5.60;3.88;;;6.10;99.90;;;;;;6216164;23;20141;-62
2022/01/27 10:32:02;;;;;;;6.78;4.18;;;6.20;99.90;;;;;;6216375;23;20520;-62
2022/01/27 10:34:27;;;;;;;7.10;4.00;;;6.20;99.90;;;;;;6216313;23;20141;-62
2022/01/27 10:36:55;;;;;;;8.70;3.80;;;6.30;99.90;;;;;;6216051;23;20232;-62
2022/01/27 10:39:21;;;;;;;6.60;3.78;;;6.30;99.90;;;;;;6216186;23;20161;-62
2022/01/27 10:42:00;;;;;;;6.07;3.78;;;6.40;99.90;;;;;;6216320;23;20164;-62
2022/01/27 10:44:33;;;;;;;7.00;3.40;;;6.40;99.90;;;;;;6216145;23;20132;-62
2022/01/27 10:47:08;;;;;;;5.60;3.63;;;6.40;99.90;;;;;;6216385;23;20140;-62
2022/01/27 10:49:38;;;;;;;4.55;3.42;;;6.40;99.90;;;;;;6216265;23;20224;-62
2022/01/27 10:52:05;;;;;;;6.45;4.18;;;6.50;99.90;;;;;;6216050;23;20389;-62
2022/01/27 10:54:37;;;;;;;5.63;3.72;;;6.50;99.90;;;;;;6216192;23;20149;-62
2022/01/27 10:57:08;;;;;;;8.40;3.97;;;6.60;99.90;;;;;;6216126;23;20491;-62
2022/01/27 10:59:34;;;;;;;7.15;4.00;;;6.70;99.90;;;;;;6216115;23;20148;-61
2022/01/27 11:02:08;;;;;;;9.85;4.35;;;6.70;99.90;;;;;;6216082;23;20168;-62
2022/01/27 11:04:35;;;;;;;5.03;3.60;;;6.80;99.90;;;;;;6216253;23;20141;-62
2022/01/27 11:07:04;;;;;;;8.70;4.63;;;6.90;99.90;;;;;;6216154;23;20463;-62
2022/01/27 11:09:36;;;;;;;8.80;4.90;;;7.00;99.90;;;;;;6215876;23;20148;-62
2022/01/27 11:12:15;;;;;;;11.23;4.07;;;7.00;99.90;;;;;;6216263;23;20152;-62
2022/01/27 11:14:41;;;;;;;9.82;5.07;;;7.20;99.90;;;;;;6215893;23;20548;-62
2022/01/27 11:17:09;;;;;;;8.30;4.88;;;7.20;99.90;;;;;;6216168;23;20149;-63
2022/01/27 11:19:56;;;;;;;8.98;4.38;;;7.30;99.90;;;;;;6215598;23;20160;-62
2022/01/27 11:27:38;;;;;;;12.45;5.30;;;7.50;99.90;;;;;;6216917;23;20164;-62
2022/01/27 11:30:11;;;;;;;11.88;5.13;;;7.60;99.90;;;;;;6217382;23;20133;-63
2022/01/27 11:32:41;;;;;;;12.48;5.40;;;7.70;99.90;;;;;;6191247;23;20137;-62
2022/01/27 11:35:20;;;;;;;10.88;4.35;;;7.70;99.90;;;;;;6217740;23;20144;-60
2022/01/27 11:37:50;;;;;;;10.10;4.38;;;7.80;99.90;;;;;;6217442;23;20133;-61
2022/01/27 11:40:18;;;;;;;8.15;3.78;;;7.90;99.90;;;;;;6217159;23;20580;-62
2022/01/27 11:42:55;;;;;;;9.55;4.32;;;8.00;99.90;;;;;;6217333;23;20183;-62
2022/01/27 11:45:21;;;;;;;11.77;3.60;;;8.00;99.90;;;;;;6217752;23;20147;-62
2022/01/27 11:48:24;;;;;;;14.07;4.20;;;8.10;99.90;;;;;;6217539;23;20141;-61
2022/01/27 11:50:54;;;;;;;12.07;4.35;;;8.10;99.90;;;;;;6217833;23;20176;-62
2022/01/27 11:53:36;;;;;;;11.20;3.92;;;8.20;99.90;;;;;;6217599;23;20141;-62
2022/01/27 11:56:31;;;;;;;12.52;4.20;;;8.20;99.90;;;;;;6217237;23;20560;-62
2022/01/27 11:58:59;;;;;;;14.77;4.32;;;8.10;99.90;;;;;;6201960;23;20195;-62
2022/01/27 12:01:29;;;;;;;11.77;3.85;;;8.00;99.90;;;;;;6191038;23;20169;-62
2022/01/27 12:04:09;;;;;;;13.20;4.35;;;8.00;99.90;;;;;;6217536;23;20143;-61
2022/01/27 12:06:39;;;;;;;13.30;3.90;;;8.10;99.90;;;;;;6217180;23;20165;-61
2022/01/27 12:09:17;;;;;;;13.18;4.47;;;8.10;99.90;;;;;;6217738;23;20149;-60
2022/01/27 12:12:02;;;;;;;11.25;3.65;;;8.00;99.90;;;;;;6216989;23;20452;-59
2022/01/27 12:14:35;;;;;;;16.90;4.75;;;8.00;99.90;;;;;;6217713;23;20149;-61
2022/01/27 12:17:09;;;;;;;17.65;4.22;;;8.00;99.90;;;;;;6217468;23;20163;-61
2022/01/27 12:19:56;;;;;;;10.40;3.10;;;8.00;99.90;;;;;;6217191;23;20176;-61
2022/01/27 12:22:43;;;;;;;13.35;3.85;;;8.00;99.90;;;;;;6217393;23;20183;-62
2022/01/27 12:25:10;;;;;;;13.07;3.58;;;8.00;99.90;;;;;;6216175;23;20443;-62
2022/01/27 12:27:36;;;;;;;13.48;3.33;;;8.00;99.90;;;;;;6217210;23;20153;-61
2022/01/27 12:30:02;;;;;;;10.85;3.35;;;8.00;99.90;;;;;;6216882;23;20541;-61
2022/01/27 12:32:30;;;;;;;12.80;3.40;;;8.10;99.90;;;;;;6217209;23;20145;-61
2022/01/27 12:34:58;;;;;;;12.25;3.42;;;8.20;99.90;;;;;;6216965;23;20616;-61
2022/01/27 12:37:46;;;;;;;16.38;3.55;;;8.20;99.90;;;;;;6216807;23;20191;-62
2022/01/27 12:40:30;;;;;;;14.57;3.78;;;8.30;99.90;;;;;;6216747;23;20149;-60
2022/01/27 12:43:00;;;;;;;15.65;3.67;;;8.40;99.90;;;;;;6217302;23;20161;-61
2022/01/27 12:45:28;;;;;;;13.60;3.55;;;8.50;99.90;;;;;;6191116;23;20457;-61
2022/01/27 12:47:55;;;;;;;16.48;3.30;;;8.50;99.90;;;;;;6218054;23;20145;-62
2022/01/27 12:50:23;;;;;;;17.23;3.35;;;8.50;99.90;;;;;;6217699;23;20149;-62
2022/01/27 12:52:58;;;;;;;9.38;2.70;;;8.50;99.90;;;;;;6217983;23;20156;-62
2022/01/27 12:55:31;;;;;;;12.80;3.22;;;8.60;99.90;;;;;;6217148;23;20355;-62
2022/01/27 12:58:02;;;;;;;16.75;2.90;;;8.70;99.90;;;;;;6191470;23;20137;-62
2022/01/27 13:00:28;;;;;;;13.30;3.17;;;8.80;99.90;;;;;;6216934;23;20129;-62
2022/01/27 13:03:01;;;;;;;12.43;3.50;;;8.80;99.90;;;;;;6218308;23;20176;-62
2022/01/27 13:05:34;;;;;;;16.15;3.63;;;8.80;99.90;;;;;;6217595;23;20255;-62
2022/01/27 13:08:05;;;;;;;10.85;2.90;;;8.80;99.90;;;;;;6217792;23;20145;-62
2022/01/27 13:10:31;;;;;;;10.45;2.60;;;8.70;99.90;;;;;;6217397;23;20141;-61
2022/01/27 13:13:06;;;;;;;16.40;3.88;;;8.60;99.90;;;;;;6217182;23;20148;-61
2022/01/27 13:15:31;;;;;;;20.95;3.50;;;8.50;99.90;;;;;;6216501;23;20167;-61
2022/01/27 13:18:07;;;;;;;10.88;3.17;;;8.40;99.90;;;;;;6190565;23;20141;-62
2022/01/27 13:20:41;;;;;;;13.15;2.75;;;8.30;99.90;;;;;;6217090;23;20218;-62
2022/01/27 13:23:28;;;;;;;10.07;2.90;;;8.30;99.90;;;;;;6216991;23;20196;-60